ODM419 GCHI-GCHI

Flight info

Callsign ODM419
Flight time N/A
Altitude 5000
Route DCT
Aircraft B60T/L-V/N

Departure

Time 2026-05-08 14:11
Airport El Hierro Airport (GCHI)

Arrival

Time N/A
Airport El Hierro Airport (GCHI)
Time Latitude Longitude Altitude Speed Heading
2026-05-08 14:08 27.81444 -17.88591 93 ft 0 kts 152°
2026-05-08 14:10 27.81414 -17.88598 93 ft 9 kts 238°
2026-05-08 14:10 27.81387 -17.88636 95 ft 10 kts 179°
2026-05-08 14:10 27.81076 -17.88463 101 ft 86 kts 152°
2026-05-08 14:10 27.80412 -17.88095 169 ft 119 kts 156°
2026-05-08 14:11 27.79702 -17.87421 356 ft 147 kts 113°
2026-05-08 14:11 27.79550 -17.86300 691 ft 153 kts 83°
2026-05-08 14:11 27.79855 -17.85101 877 ft 166 kts 62°
2026-05-08 14:11 27.80498 -17.83954 1005 ft 178 kts 53°
2026-05-08 14:12 27.81272 -17.82792 1110 ft 187 kts 49°
2026-05-08 14:12 27.82080 -17.81644 1297 ft 190 kts 46°
2026-05-08 14:12 27.82951 -17.80532 1298 ft 190 kts 43°
2026-05-08 14:12 27.83782 -17.79427 1617 ft 179 kts 49°
2026-05-08 14:13 27.84462 -17.78235 1944 ft 180 kts 56°
2026-05-08 14:13 27.85053 -17.77000 2360 ft 179 kts 58°
2026-05-08 14:13 27.85688 -17.75760 2654 ft 186 kts 54°
2026-05-08 14:13 27.86385 -17.74541 3060 ft 185 kts 53°
2026-05-08 14:14 27.87000 -17.73273 3460 ft 184 kts 59°
2026-05-08 14:14 27.87586 -17.71958 3762 ft 189 kts 58°
2026-05-08 14:14 27.88166 -17.70650 4134 ft 187 kts 59°
2026-05-08 14:14 27.88728 -17.69311 4461 ft 188 kts 61°
2026-05-08 14:15 27.89253 -17.67950 4776 ft 194 kts 62°
2026-05-08 14:15 27.89810 -17.66524 4998 ft 198 kts 60°
2026-05-08 14:15 27.90587 -17.65151 4768 ft 221 kts 53°
2026-05-08 14:15 27.91089 -17.63408 4465 ft 245 kts 81°
2026-05-08 14:16 27.91182 -17.61474 4440 ft 245 kts 86°
2026-05-08 14:16 27.91231 -17.59559 4448 ft 240 kts 86°
2026-05-08 14:16 27.91274 -17.57693 4439 ft 235 kts 86°
2026-05-08 14:16 27.91311 -17.55867 4421 ft 230 kts 86°
2026-05-08 14:17 27.91343 -17.54068 4387 ft 228 kts 86°
2026-05-08 14:17 27.91377 -17.52283 4356 ft 226 kts 86°
2026-05-08 14:17 27.91774 -17.50608 4304 ft 219 kts 53°
2026-05-08 14:17 27.92776 -17.49361 4287 ft 213 kts 38°
2026-05-08 14:18 27.93887 -17.48219 4269 ft 213 kts 37°
2026-05-08 14:18 27.94987 -17.47105 4257 ft 212 kts 37°
2026-05-08 14:18 27.96036 -17.45931 4229 ft 215 kts 49°
2026-05-08 14:18 27.96813 -17.44497 4207 ft 217 kts 57°
2026-05-08 14:19 27.97558 -17.42992 4205 ft 216 kts 56°
2026-05-08 14:19 27.98278 -17.41524 4203 ft 216 kts 57°
2026-05-08 14:19 27.99004 -17.40033 4176 ft 217 kts 57°
2026-05-08 14:19 27.99679 -17.38509 4120 ft 221 kts 68°
2026-05-08 14:20 28.00023 -17.36786 4023 ft 223 kts 73°
2026-05-08 14:20 28.00374 -17.35114 3931 ft 213 kts 73°
2026-05-08 14:20 28.00681 -17.33483 3708 ft 215 kts 76°
2026-05-08 14:20 28.00942 -17.31841 3489 ft 208 kts 76°
2026-05-08 14:21 28.01250 -17.30231 3048 ft 212 kts 73°
2026-05-08 14:21 28.01590 -17.28682 2726 ft 195 kts 73°
2026-05-08 14:21 28.01919 -17.27257 2279 ft 173 kts 71°
2026-05-08 14:21 28.02179 -17.26074 1925 ft 138 kts 72°
2026-05-08 14:22 28.02384 -17.25049 1502 ft 132 kts 63°
2026-05-08 14:22 28.02616 -17.24055 1147 ft 132 kts 78°
2026-05-08 14:22 28.02761 -17.23069 963 ft 122 kts 84°
2026-05-08 14:22 28.02868 -17.22129 756 ft 117 kts 82°
2026-05-08 14:23 28.02970 -17.21365 717 ft 67 kts 80°
2026-05-08 14:23 28.03005 -17.21143 715 ft 16 kts 81°
2026-05-08 14:23 28.03075 -17.21153 715 ft 13 kts 259°
2026-05-08 14:23 28.03065 -17.21239 715 ft 12 kts 284°
2026-05-08 14:24 28.03067 -17.21256 717 ft 0 kts 255°
2026-05-08 14:24 28.03068 -17.21256 717 ft 0 kts 255°
2026-05-08 14:25 28.03068 -17.21255 717 ft 0 kts 255°
2026-05-08 14:26 28.03067 -17.21260 719 ft 5 kts 268°
2026-05-08 14:26 28.03068 -17.21201 715 ft 17 kts 84°
2026-05-08 14:26 28.03031 -17.21111 715 ft 13 kts 188°
2026-05-08 14:27 28.02977 -17.21362 717 ft 65 kts 261°
2026-05-08 14:27 28.02859 -17.22013 813 ft 96 kts 235°
2026-05-08 14:27 28.02104 -17.22022 931 ft 141 kts 162°
2026-05-08 14:27 28.01251 -17.21357 1188 ft 150 kts 144°
2026-05-08 14:28 28.00918 -17.20181 1402 ft 167 kts 92°
2026-05-08 14:28 28.00904 -17.18834 1607 ft 174 kts 89°
2026-05-08 14:28 28.00913 -17.17442 1830 ft 181 kts 86°
2026-05-08 14:28 28.00944 -17.16012 2088 ft 182 kts 86°
2026-05-08 14:29 28.00964 -17.14555 2302 ft 187 kts 86°
2026-05-08 14:29 28.00987 -17.13059 2507 ft 193 kts 85°
2026-05-08 14:29 28.01053 -17.11548 2820 ft 188 kts 82°
2026-05-08 14:29 28.01160 -17.10038 2918 ft 198 kts 82°
2026-05-08 14:30 28.01290 -17.08518 3237 ft 193 kts 81°
2026-05-08 14:30 28.01435 -17.06981 3351 ft 201 kts 82°
2026-05-08 14:30 28.01531 -17.05362 3451 ft 208 kts 84°
2026-05-08 14:30 28.01590 -17.03748 3628 ft 209 kts 86°
2026-05-08 14:31 28.01629 -17.02057 3697 ft 214 kts 86°
2026-05-08 14:31 28.01700 -17.00372 3788 ft 217 kts 78°
2026-05-08 14:31 28.01819 -16.98676 3812 ft 222 kts 87°
2026-05-08 14:32 28.01831 -16.95134 3876 ft 228 kts 88°
2026-05-08 14:32 28.01837 -16.93378 3891 ft 217 kts 88°
2026-05-08 14:32 28.01840 -16.91701 3879 ft 210 kts 88°
2026-05-08 14:32 28.01842 -16.90064 3850 ft 206 kts 88°
2026-05-08 14:33 28.01844 -16.88451 3814 ft 204 kts 88°
2026-05-08 14:33 28.01842 -16.86852 3764 ft 202 kts 88°
2026-05-08 14:33 28.01840 -16.85264 3735 ft 201 kts 88°
2026-05-08 14:33 28.01835 -16.83684 3718 ft 200 kts 88°
2026-05-08 14:34 28.01821 -16.82109 3682 ft 200 kts 88°
2026-05-08 14:34 28.01807 -16.80533 3640 ft 200 kts 88°
2026-05-08 14:34 28.01804 -16.78965 3599 ft 199 kts 89°
2026-05-08 14:34 28.01638 -16.77365 3318 ft 210 kts 99°
2026-05-08 14:35 28.01371 -16.75719 3054 ft 212 kts 86°
2026-05-08 14:35 28.01881 -16.74222 2909 ft 203 kts 59°
2026-05-08 14:35 28.02336 -16.73277 2675 ft 211 kts 57°
2026-05-08 14:35 28.03100 -16.71781 2223 ft 225 kts 56°
2026-05-08 14:36 28.03944 -16.70290 1984 ft 227 kts 53°
2026-05-08 14:36 28.04846 -16.68764 1485 ft 234 kts 38°
2026-05-08 14:36 28.06276 -16.68635 1362 ft 204 kts 328°
2026-05-08 14:36 28.07111 -16.69801 1265 ft 192 kts 291°
2026-05-08 14:37 28.07164 -16.71293 824 ft 205 kts 256°
2026-05-08 14:37 28.06603 -16.72843 362 ft 212 kts 248°
2026-05-08 14:37 28.05564 -16.73888 347 ft 212 kts 190°
2026-05-08 14:37 28.04454 -16.72923 253 ft 216 kts 103°
2026-05-08 14:38 28.04576 -16.71368 243 ft 192 kts 38°
2026-05-08 14:38 28.05483 -16.71567 247 ft 157 kts 276°
2026-05-08 14:38 28.04988 -16.72489 264 ft 175 kts 198°
2026-05-08 14:38 28.03854 -16.71737 67 ft 213 kts 137°
2026-05-08 14:39 28.02771 -16.70633 176 ft 197 kts 169°
2026-05-08 14:39 28.01465 -16.70754 92 ft 191 kts 192°
2026-05-08 14:39 28.00335 -16.70170 209 ft 191 kts 121°
2026-05-08 14:39 27.99836 -16.68735 78 ft 202 kts 104°
2026-05-08 14:40 28.00158 -16.67312 130 ft 194 kts 60°
2026-05-08 14:40 28.00607 -16.65845 195 ft 199 kts 95°
2026-05-08 14:40 28.00338 -16.64263 180 ft 200 kts 77°
2026-05-08 14:40 28.01040 -16.62971 153 ft 195 kts 46°
2026-05-08 14:41 28.01852 -16.61740 166 ft 201 kts 55°
2026-05-08 14:41 28.02418 -16.60305 165 ft 205 kts 61°
2026-05-08 14:41 28.02867 -16.58799 242 ft 204 kts 90°
2026-05-08 14:41 28.02739 -16.57154 97 ft 216 kts 97°
2026-05-08 14:42 28.02514 -16.55490 160 ft 213 kts 100°
2026-05-08 14:42 28.02693 -16.53952 248 ft 195 kts 39°
2026-05-08 14:42 28.03734 -16.52967 285 ft 191 kts 24°
2026-05-08 14:42 28.04678 -16.53316 512 ft 155 kts 286°
2026-05-08 14:43 28.04826 -16.54510 432 ft 133 kts 276°
2026-05-08 14:43 28.04911 -16.55349 313 ft 98 kts 277°
2026-05-08 14:43 28.04838 -16.56087 228 ft 94 kts 257°
2026-05-08 14:43 28.04595 -16.56802 205 ft 101 kts 253°
2026-05-08 14:44 28.04336 -16.57551 207 ft 103 kts 253°
2026-05-08 14:44 28.04134 -16.58393 256 ft 119 kts 267°
2026-05-08 14:44 28.04062 -16.59366 392 ft 121 kts 265°
2026-05-08 14:44 28.03993 -16.60241 593 ft 118 kts 200°
2026-05-08 14:45 28.03675 -16.59488 474 ft 147 kts 69°
2026-05-08 14:45 28.04033 -16.58446 212 ft 137 kts 62°
2026-05-08 14:45 28.04331 -16.57582 185 ft 100 kts 62°
2026-05-08 14:45 28.04536 -16.57030 200 ft 47 kts 56°
2026-05-08 14:46 28.04712 -16.56822 209 ft 30 kts 46°
2026-05-08 14:46 28.04775 -16.56865 213 ft 15 kts 241°
2026-05-08 14:46 28.04725 -16.57014 216 ft 37 kts 251°
2026-05-08 14:46 28.04595 -16.57408 217 ft 67 kts 246°
2026-05-08 14:47 28.04388 -16.57948 217 ft 80 kts 248°
2026-05-08 14:47 28.04327 -16.58271 217 ft 24 kts 328°
2026-05-08 14:47 28.04358 -16.58273 217 ft 0 kts 332°